createdAt,value
2023-01-17T00:01:16.259Z,12.18
2023-01-17T00:04:01.786Z,10.18
2023-01-17T00:06:48.402Z,8.82
2023-01-17T00:09:37.284Z,8.50
2023-01-17T00:12:05.862Z,9.60
2023-01-17T00:14:33.574Z,10.30
2023-01-17T00:17:01.875Z,9.50
2023-01-17T00:19:47.319Z,9.77
2023-01-17T00:22:44.481Z,9.10
2023-01-17T00:25:35.482Z,14.10
2023-01-17T00:28:02.491Z,10.30
2023-01-17T00:30:30.284Z,13.13
2023-01-17T00:32:57.709Z,13.18
2023-01-17T00:35:25.840Z,9.68
2023-01-17T00:38:05.175Z,13.20
2023-01-17T00:40:33.401Z,7.22
2023-01-17T00:43:22.081Z,10.65
2023-01-17T00:46:08.344Z,13.40
2023-01-17T00:48:54.611Z,17.30
2023-01-17T00:51:42.019Z,10.27
2023-01-17T00:54:28.068Z,12.13
2023-01-17T00:57:14.275Z,12.98
2023-01-17T00:59:59.798Z,9.82
2023-01-17T01:02:46.339Z,11.70
2023-01-17T01:05:33.799Z,9.55
2023-01-17T01:08:20.092Z,9.48
2023-01-17T01:11:06.961Z,14.02
2023-01-17T01:13:56.455Z,11.80
2023-01-17T01:16:42.553Z,10.68
2023-01-17T01:19:28.498Z,8.80
2023-01-17T01:22:13.980Z,12.80
2023-01-17T01:25:02.826Z,14.85
2023-01-17T01:27:48.371Z,8.52
2023-01-17T01:30:34.589Z,7.80
2023-01-17T01:33:20.436Z,8.13
2023-01-17T01:35:49.841Z,7.05
2023-01-17T01:38:21.101Z,12.68
2023-01-17T01:40:50.697Z,7.60
2023-01-17T01:43:21.350Z,7.68
2023-01-17T01:45:55.766Z,11.05
2023-01-17T01:48:38.830Z,8.02
2023-01-17T01:51:13.927Z,16.63
2023-01-17T01:53:48.585Z,8.30
2023-01-17T01:56:19.254Z,7.03
2023-01-17T01:58:50.908Z,11.88
2023-01-17T02:01:19.298Z,10.30
2023-01-17T02:03:47.772Z,7.40
2023-01-17T02:06:25.909Z,8.45
2023-01-17T02:08:53.345Z,10.05
2023-01-17T02:11:21.093Z,6.85
2023-01-17T02:13:51.124Z,10.32
2023-01-17T02:16:31.046Z,12.75
2023-01-17T02:19:38.831Z,10.05
2023-01-17T02:22:27.273Z,8.55
2023-01-17T02:25:02.716Z,10.10
2023-01-17T02:27:56.738Z,11.65
2023-01-17T02:30:35.816Z,7.53
2023-01-17T02:33:25.521Z,10.63
2023-01-17T02:36:10.265Z,10.25
2023-01-17T02:39:09.502Z,9.82
2023-01-17T02:41:51.589Z,6.88
2023-01-17T02:44:20.805Z,7.97
2023-01-17T02:46:54.016Z,12.90
2023-01-17T02:49:26.212Z,9.18
2023-01-17T02:52:16.269Z,8.95
2023-01-17T02:55:16.658Z,10.30
2023-01-17T02:58:13.328Z,9.40
2023-01-17T03:01:12.688Z,11.55
2023-01-17T03:04:06.465Z,10.65
2023-01-17T03:06:56.466Z,9.02
2023-01-17T03:09:25.577Z,15.13
2023-01-17T03:11:55.978Z,14.40
2023-01-17T03:14:22.943Z,13.73
2023-01-17T03:16:50.434Z,11.20
2023-01-17T03:19:17.527Z,17.23
2023-01-17T03:21:44.505Z,13.90
2023-01-17T03:24:20.697Z,13.27
2023-01-17T03:26:48.048Z,17.75
2023-01-17T03:29:16.738Z,14.05
2023-01-17T03:31:47.013Z,14.18
2023-01-17T03:34:14.605Z,18.52
2023-01-17T03:36:41.767Z,14.75
2023-01-17T03:39:08.796Z,15.52
2023-01-17T03:41:35.872Z,12.95
2023-01-17T03:44:02.777Z,15.23
2023-01-17T03:46:44.337Z,15.30
2023-01-17T03:49:19.899Z,15.98
2023-01-17T03:52:11.151Z,12.82
2023-01-17T03:57:33.893Z,16.02
2023-01-17T04:00:24.558Z,15.75
2023-01-17T04:02:51.615Z,19.10
2023-01-17T04:05:18.672Z,15.15
2023-01-17T04:07:48.831Z,18.08
2023-01-17T04:10:22.012Z,17.48
2023-01-17T04:12:49.121Z,13.52
2023-01-17T04:15:16.295Z,16.00
2023-01-17T04:17:43.821Z,20.63
2023-01-17T04:20:33.714Z,16.92
2023-01-17T04:23:00.889Z,13.95
2023-01-17T04:25:30.163Z,16.10
2023-01-17T04:27:58.708Z,12.85
2023-01-17T04:30:26.127Z,16.95
2023-01-17T04:32:53.394Z,14.80
2023-01-17T04:35:20.678Z,16.10
2023-01-17T04:37:47.689Z,11.55
2023-01-17T04:40:18.246Z,17.13
2023-01-17T04:42:45.597Z,13.57
2023-01-17T04:45:14.234Z,16.33
2023-01-17T04:47:41.415Z,12.10
2023-01-17T04:50:09.986Z,11.77
2023-01-17T04:52:37.163Z,13.40
2023-01-17T04:55:04.454Z,14.07
2023-01-17T04:57:31.616Z,12.80
2023-01-17T04:59:58.573Z,14.45
2023-01-17T05:02:25.558Z,17.63
2023-01-17T05:04:52.612Z,10.93
2023-01-17T05:07:19.688Z,15.52
2023-01-17T05:09:47.688Z,22.73
2023-01-17T05:12:14.482Z,67.22
2023-01-17T05:14:41.250Z,54.25
2023-01-17T05:17:08.297Z,42.88
2023-01-17T05:19:35.182Z,35.60
2023-01-17T05:22:04.205Z,39.60
2023-01-17T05:24:32.421Z,35.83
2023-01-17T05:27:03.927Z,33.70
2023-01-17T05:29:31.034Z,31.20
2023-01-17T05:31:58.069Z,33.97
2023-01-17T05:34:25.207Z,33.60
2023-01-17T05:36:52.427Z,32.83
2023-01-17T05:39:19.336Z,26.88
2023-01-17T05:41:46.430Z,26.15
2023-01-17T05:44:13.552Z,19.60
2023-01-17T05:46:40.646Z,21.48
2023-01-17T05:49:07.969Z,20.70
2023-01-17T05:51:37.806Z,19.40
2023-01-17T05:54:05.580Z,22.85
2023-01-17T05:56:33.248Z,22.10
2023-01-17T05:59:00.416Z,23.00
2023-01-17T06:01:27.761Z,21.35
2023-01-17T06:03:54.677Z,17.55
2023-01-17T06:06:22.407Z,18.48
2023-01-17T06:08:49.366Z,17.48
2023-01-17T06:11:16.280Z,18.83
2023-01-17T06:13:43.220Z,22.42
2023-01-17T06:16:10.229Z,17.38
2023-01-17T06:18:37.288Z,19.92
2023-01-17T06:21:09.005Z,17.48
2023-01-17T06:23:36.022Z,17.17
2023-01-17T06:26:04.620Z,17.85
2023-01-17T06:28:31.792Z,19.30
2023-01-17T06:31:00.009Z,16.75
2023-01-17T06:33:27.080Z,16.33
2023-01-17T06:35:54.893Z,17.25
2023-01-17T06:38:21.929Z,18.02
2023-01-17T06:40:49.113Z,22.50
2023-01-17T06:43:16.034Z,17.75
2023-01-17T06:45:43.049Z,19.92
2023-01-17T06:48:10.203Z,18.50
2023-01-17T06:50:38.100Z,18.42
2023-01-17T06:53:07.106Z,17.92
2023-01-17T06:55:35.016Z,17.50
2023-01-17T06:58:03.096Z,16.83
2023-01-17T07:00:31.524Z,19.45
2023-01-17T07:02:58.728Z,19.02
2023-01-17T07:05:27.453Z,19.45
2023-01-17T07:07:54.908Z,16.55
2023-01-17T07:10:22.161Z,22.33
2023-01-17T07:12:49.379Z,17.40
2023-01-17T07:15:16.375Z,16.13
2023-01-17T07:17:43.244Z,19.63
2023-01-17T07:20:10.532Z,15.48
2023-01-17T07:22:37.875Z,19.85
2023-01-17T07:25:05.334Z,22.20
2023-01-17T07:27:33.726Z,17.73
2023-01-17T07:30:01.071Z,15.95
2023-01-17T07:32:28.402Z,18.45
2023-01-17T07:34:57.750Z,14.75
2023-01-17T07:37:26.406Z,19.17
2023-01-17T07:39:54.754Z,18.38
2023-01-17T07:42:24.085Z,17.63
2023-01-17T07:44:52.169Z,19.77
2023-01-17T07:47:20.138Z,23.33
2023-01-17T07:49:47.645Z,25.30
2023-01-17T07:52:16.295Z,21.35
2023-01-17T07:54:44.479Z,18.27
2023-01-17T07:57:14.774Z,18.15
2023-01-17T07:59:41.608Z,19.73
2023-01-17T08:02:18.174Z,19.48
2023-01-17T08:04:46.737Z,21.23
2023-01-17T08:07:14.800Z,21.33
2023-01-17T08:09:49.738Z,19.00
2023-01-17T08:12:17.695Z,17.05
2023-01-17T08:14:45.114Z,19.95
2023-01-17T08:17:18.151Z,22.63
2023-01-17T08:19:45.200Z,22.30
2023-01-17T08:22:12.456Z,23.08
2023-01-17T08:24:39.367Z,22.80
2023-01-17T08:27:06.247Z,21.23
2023-01-17T08:29:33.243Z,21.98
2023-01-17T08:32:00.315Z,21.73
2023-01-17T08:34:27.265Z,18.58
2023-01-17T08:36:54.470Z,19.13
2023-01-17T08:39:22.018Z,23.40
2023-01-17T08:41:48.873Z,21.40
2023-01-17T08:44:15.971Z,19.05
2023-01-17T08:46:44.280Z,20.75
2023-01-17T08:49:11.942Z,20.08
2023-01-17T08:51:38.977Z,22.33
2023-01-17T08:54:06.325Z,24.27
2023-01-17T08:56:34.182Z,25.83
2023-01-17T08:59:03.136Z,20.23
2023-01-17T09:01:30.270Z,27.50
2023-01-17T09:03:57.730Z,24.23
2023-01-17T09:06:24.825Z,23.20
2023-01-17T09:08:54.990Z,30.08
2023-01-17T09:11:22.235Z,23.92
2023-01-17T09:13:49.263Z,28.10
2023-01-17T09:16:16.228Z,23.23
2023-01-17T09:18:43.316Z,20.20
2023-01-17T09:21:17.990Z,22.23
2023-01-17T09:23:45.666Z,22.27
2023-01-17T09:26:25.244Z,20.88
2023-01-17T09:28:52.821Z,17.88
2023-01-17T09:31:22.445Z,16.05
2023-01-17T09:33:51.120Z,22.42
2023-01-17T09:36:18.186Z,23.08
2023-01-17T09:38:45.415Z,22.77
2023-01-17T09:41:33.099Z,19.58
2023-01-17T09:44:15.089Z,19.27
2023-01-17T09:46:46.767Z,22.10
2023-01-17T09:49:32.440Z,17.55
2023-01-17T09:52:00.586Z,15.63
2023-01-17T09:54:35.111Z,18.77
2023-01-17T09:57:27.025Z,18.65
2023-01-17T10:00:21.096Z,16.70
2023-01-17T10:03:27.854Z,17.60
2023-01-17T10:06:27.112Z,14.82
2023-01-17T10:09:11.857Z,15.20
2023-01-17T10:12:09.190Z,23.10
2023-01-17T10:15:03.263Z,16.88
2023-01-17T10:17:53.256Z,14.57
2023-01-17T10:20:38.583Z,15.77
2023-01-17T10:23:44.153Z,16.05
2023-01-17T10:26:23.773Z,13.23
2023-01-17T10:28:53.077Z,12.77
2023-01-17T10:31:35.421Z,14.60
2023-01-17T10:34:17.195Z,14.43
2023-01-17T10:36:49.620Z,13.52
2023-01-17T10:39:22.048Z,13.30
2023-01-17T10:42:26.867Z,14.25
2023-01-17T10:45:04.209Z,13.65
2023-01-17T10:47:36.477Z,14.63
2023-01-17T10:50:05.277Z,14.02
2023-01-17T10:52:43.455Z,15.23
2023-01-17T10:55:13.206Z,19.60
2023-01-17T10:57:42.795Z,13.38
2023-01-17T11:00:34.565Z,14.40
2023-01-17T11:03:02.751Z,18.15
2023-01-17T11:05:32.723Z,14.20
2023-01-17T11:07:59.718Z,15.45
2023-01-17T11:10:54.277Z,17.23
2023-01-17T11:13:32.022Z,14.45
2023-01-17T11:16:06.259Z,14.77
2023-01-17T11:18:39.397Z,14.38
2023-01-17T11:21:17.130Z,17.05
2023-01-17T11:23:56.878Z,17.55
2023-01-17T11:26:34.573Z,17.27
2023-01-17T11:29:37.446Z,16.83
2023-01-17T11:32:22.654Z,20.02
2023-01-17T11:35:07.038Z,14.70
2023-01-17T11:37:35.307Z,11.85
2023-01-17T11:40:19.088Z,17.80
2023-01-17T11:42:46.159Z,13.07
2023-01-17T11:45:29.209Z,15.80
2023-01-17T11:48:08.378Z,18.98
2023-01-17T11:50:37.581Z,36.95
2023-01-17T11:53:24.368Z,30.42
2023-01-17T11:56:28.042Z,30.95
2023-01-17T11:59:16.500Z,23.67
2023-01-17T12:01:58.127Z,23.48
2023-01-17T12:04:41.562Z,22.23
2023-01-17T12:07:44.680Z,13.07
2023-01-17T12:10:32.649Z,13.77
2023-01-17T12:13:33.027Z,18.73
2023-01-17T12:16:24.874Z,12.43
2023-01-17T12:19:22.436Z,17.42
2023-01-17T12:22:01.321Z,14.45
2023-01-17T12:24:39.538Z,15.13
2023-01-17T12:27:19.355Z,12.45
2023-01-17T12:30:23.428Z,14.73
2023-01-17T12:33:21.526Z,16.58
2023-01-17T12:35:56.970Z,16.90
2023-01-17T12:38:33.392Z,18.88
2023-01-17T12:41:26.539Z,11.90
2023-01-17T12:43:59.786Z,9.95
2023-01-17T12:46:38.723Z,13.73
2023-01-17T12:49:32.333Z,13.65
2023-01-17T12:52:55.057Z,14.63
2023-01-17T12:55:40.469Z,13.43
2023-01-17T12:58:18.949Z,11.55
2023-01-17T13:00:51.547Z,11.20
2023-01-17T13:03:35.269Z,14.88
2023-01-17T13:06:03.842Z,19.48
2023-01-17T13:08:36.294Z,16.08
2023-01-17T13:11:09.552Z,12.20
2023-01-17T13:13:36.845Z,12.50
2023-01-17T13:16:21.833Z,7.45
2023-01-17T13:18:51.658Z,11.00
2023-01-17T13:21:29.660Z,11.85
2023-01-17T13:23:59.582Z,10.00
2023-01-17T13:26:29.583Z,11.32
2023-01-17T13:29:20.448Z,10.20
2023-01-17T13:32:05.624Z,16.52
2023-01-17T13:35:00.951Z,8.93
2023-01-17T13:37:58.544Z,6.10
2023-01-17T13:40:37.132Z,9.50
2023-01-17T13:43:14.512Z,9.98
2023-01-17T13:45:41.726Z,11.20
2023-01-17T13:48:31.527Z,6.57
2023-01-17T13:50:59.245Z,13.15
2023-01-17T13:53:35.080Z,6.85
2023-01-17T13:56:27.801Z,14.55
2023-01-17T13:59:03.072Z,16.33
2023-01-17T14:01:34.805Z,24.80
2023-01-17T14:04:07.843Z,7.63
2023-01-17T14:06:35.435Z,9.75
2023-01-17T14:09:08.097Z,5.47
2023-01-17T14:11:37.220Z,9.38
2023-01-17T14:14:41.080Z,5.47
2023-01-17T14:17:23.223Z,8.90
2023-01-17T14:19:51.168Z,5.28
2023-01-17T14:22:21.082Z,5.68
2023-01-17T14:25:11.051Z,4.65
2023-01-17T14:27:50.449Z,23.17
2023-01-17T14:30:18.139Z,6.65
2023-01-17T14:33:08.584Z,6.65
2023-01-17T14:35:37.421Z,21.60
2023-01-17T14:38:23.178Z,8.57
2023-01-17T14:41:04.731Z,12.25
2023-01-17T14:43:35.253Z,8.85
2023-01-17T14:46:06.616Z,16.92
2023-01-17T14:48:34.388Z,11.02
2023-01-17T14:51:01.933Z,27.23
2023-01-17T14:53:31.485Z,12.45
2023-01-17T14:56:01.753Z,8.70
2023-01-17T14:58:30.563Z,11.32
2023-01-17T15:01:03.599Z,11.27
2023-01-17T15:03:41.875Z,6.03
2023-01-17T15:06:18.887Z,6.45
2023-01-17T15:08:46.890Z,6.97
2023-01-17T15:11:35.516Z,9.63
2023-01-17T15:14:05.971Z,6.70
2023-01-17T15:16:38.235Z,11.60
2023-01-17T15:19:13.399Z,9.85
2023-01-17T15:21:43.407Z,12.63
2023-01-17T15:24:20.003Z,12.52
2023-01-17T15:26:47.690Z,7.72
2023-01-17T15:29:24.208Z,6.97
2023-01-17T15:32:03.782Z,16.60
2023-01-17T15:34:33.772Z,13.55
2023-01-17T15:37:19.875Z,13.00
2023-01-17T15:39:47.377Z,12.50
2023-01-17T15:42:25.250Z,13.32
2023-01-17T15:44:54.777Z,19.92
2023-01-17T15:47:28.193Z,26.42
2023-01-17T15:49:55.616Z,27.30
2023-01-17T15:52:22.721Z,23.42
2023-01-17T15:54:53.457Z,22.92
2023-01-17T15:57:37.050Z,15.63
2023-01-17T16:00:09.044Z,13.07
2023-01-17T16:02:43.652Z,17.75
2023-01-17T16:05:26.096Z,13.18
2023-01-17T16:07:56.742Z,19.85
2023-01-17T16:10:28.226Z,18.00
2023-01-17T16:12:56.243Z,18.42
2023-01-17T16:15:24.459Z,14.95
2023-01-17T16:18:14.909Z,19.77
2023-01-17T16:20:53.288Z,35.10
2023-01-17T16:23:20.545Z,47.42
2023-01-17T16:25:48.221Z,48.70
2023-01-17T16:28:15.843Z,45.67
2023-01-17T16:30:44.643Z,38.15
2023-01-17T16:33:15.286Z,21.55
2023-01-17T16:35:43.074Z,19.70
2023-01-17T16:38:19.809Z,24.15
2023-01-17T16:40:48.049Z,18.85
2023-01-17T16:43:18.590Z,17.92
2023-01-17T16:45:52.763Z,34.22
2023-01-17T16:48:20.669Z,17.17
2023-01-17T16:58:53.486Z,26.10
2023-01-17T17:01:22.752Z,18.23
2023-01-17T17:03:50.101Z,24.02
2023-01-17T17:06:17.094Z,17.52
2023-01-17T17:08:44.946Z,19.30
2023-01-17T17:11:18.146Z,26.05
2023-01-17T17:13:47.177Z,17.45
2023-01-17T17:16:26.526Z,21.25
2023-01-17T17:19:02.319Z,18.92
2023-01-17T17:21:31.011Z,22.83
2023-01-17T17:23:59.648Z,27.38
2023-01-17T17:26:30.867Z,56.78
2023-01-17T17:28:58.242Z,28.95
2023-01-17T17:31:25.192Z,32.50
2023-01-17T17:33:52.254Z,30.58
2023-01-17T17:36:19.311Z,40.15
2023-01-17T17:38:53.110Z,45.78
2023-01-17T17:41:22.363Z,46.20
2023-01-17T17:43:49.528Z,37.08
2023-01-17T17:46:16.550Z,38.83
2023-01-17T17:48:43.577Z,37.17
2023-01-17T17:51:22.910Z,43.58
2023-01-17T17:53:49.885Z,43.90
2023-01-17T17:56:16.895Z,41.08
2023-01-17T17:58:46.127Z,38.78
2023-01-17T18:01:13.568Z,38.35
2023-01-17T18:03:40.752Z,36.60
2023-01-17T18:06:10.212Z,45.03
2023-01-17T18:08:38.496Z,40.97
2023-01-17T18:11:11.384Z,42.60
2023-01-17T18:13:39.002Z,40.70
2023-01-17T18:16:09.264Z,36.90
2023-01-17T18:18:38.437Z,39.08
2023-01-17T18:21:28.619Z,33.42
2023-01-17T18:24:01.873Z,34.75
2023-01-17T18:26:31.730Z,34.28
2023-01-17T18:29:00.262Z,36.45
2023-01-17T18:31:28.324Z,34.13
2023-01-17T18:33:58.096Z,33.22
2023-01-17T18:36:26.523Z,28.52
2023-01-17T18:38:53.608Z,26.35
2023-01-17T18:41:32.393Z,32.95
2023-01-17T18:43:59.280Z,26.60
2023-01-17T18:46:27.004Z,34.65
2023-01-17T18:48:57.115Z,81.93
2023-01-17T18:51:25.226Z,95.00
2023-01-17T18:53:55.349Z,245.52
2023-01-17T18:56:23.884Z,334.15
2023-01-17T18:58:51.425Z,270.92
2023-01-17T19:01:19.977Z,185.77
2023-01-17T19:03:49.105Z,121.65
2023-01-17T19:06:20.026Z,84.07
2023-01-17T19:08:49.143Z,53.88
2023-01-17T19:11:16.112Z,51.35
2023-01-17T19:13:42.999Z,52.55
2023-01-17T19:16:15.499Z,51.47
2023-01-17T19:18:42.916Z,38.50
2023-01-17T19:21:13.070Z,38.47
2023-01-17T19:23:40.532Z,35.25
2023-01-17T19:26:08.925Z,28.30
2023-01-17T19:28:40.939Z,25.10
2023-01-17T19:31:10.213Z,22.00
2023-01-17T19:33:38.862Z,25.42
2023-01-17T19:36:09.168Z,17.92
2023-01-17T19:38:38.642Z,23.52
2023-01-17T19:41:14.772Z,19.23
2023-01-17T19:43:42.720Z,16.23
2023-01-17T19:46:10.748Z,22.90
2023-01-17T19:48:39.035Z,23.63
2023-01-17T19:51:14.399Z,21.35
2023-01-17T19:53:41.968Z,24.50
2023-01-17T19:56:17.135Z,26.98
2023-01-17T19:58:46.298Z,22.60
2023-01-17T20:01:14.887Z,20.83
2023-01-17T20:03:45.243Z,21.52
2023-01-17T20:06:15.326Z,22.23
2023-01-17T20:08:43.485Z,21.10
2023-01-17T20:11:14.840Z,20.15
2023-01-17T20:13:45.477Z,21.25
2023-01-17T20:16:14.541Z,20.45
2023-01-17T20:18:41.769Z,16.60
2023-01-17T20:21:14.710Z,20.10
2023-01-17T20:23:43.365Z,20.55
2023-01-17T20:26:11.989Z,18.40
2023-01-17T20:28:41.213Z,17.92
2023-01-17T20:31:16.978Z,18.45
2023-01-17T20:33:46.910Z,15.10
2023-01-17T20:36:15.712Z,20.33
2023-01-17T20:38:43.865Z,17.58
2023-01-17T20:41:22.880Z,15.23
2023-01-17T20:43:54.762Z,16.17
2023-01-17T20:46:24.733Z,17.27
2023-01-17T20:48:54.602Z,21.15
2023-01-17T20:51:23.310Z,23.10
2023-01-17T20:53:59.251Z,20.10
2023-01-17T20:56:30.045Z,19.23
2023-01-17T20:58:57.952Z,21.02
2023-01-17T21:01:25.214Z,17.17
2023-01-17T21:03:54.054Z,15.32
2023-01-17T21:06:23.325Z,14.63
2023-01-17T21:08:51.342Z,13.55
2023-01-17T21:11:23.588Z,14.75
2023-01-17T21:13:51.598Z,14.38
2023-01-17T21:16:21.363Z,14.63
2023-01-17T21:18:50.137Z,14.15
2023-01-17T21:21:23.011Z,16.17
2023-01-17T21:23:51.278Z,13.27
2023-01-17T21:26:21.198Z,24.52
2023-01-17T21:28:49.668Z,18.13
2023-01-17T21:31:25.844Z,16.73
2023-01-17T21:33:56.805Z,12.68
2023-01-17T21:36:27.479Z,17.52
2023-01-17T21:38:57.216Z,14.75
2023-01-17T21:41:28.972Z,13.38
2023-01-17T21:43:57.815Z,13.27
2023-01-17T21:46:25.379Z,15.00
2023-01-17T21:48:52.246Z,16.17
2023-01-17T21:51:19.886Z,17.83
2023-01-17T21:53:46.742Z,14.93
2023-01-17T21:56:33.204Z,20.38
2023-01-17T21:59:01.052Z,20.70
2023-01-17T22:01:32.414Z,21.27
2023-01-17T22:04:02.885Z,20.92
2023-01-17T22:06:34.402Z,12.77
2023-01-17T22:09:01.744Z,19.15
2023-01-17T22:11:30.463Z,18.15
2023-01-17T22:13:59.204Z,21.08
2023-01-17T22:16:26.635Z,15.98
2023-01-17T22:18:53.625Z,24.17
2023-01-17T22:21:26.333Z,17.27
2023-01-17T22:23:55.437Z,20.48
2023-01-17T22:26:28.330Z,18.95
2023-01-17T22:28:55.804Z,17.73
2023-01-17T22:31:25.405Z,18.35
2023-01-17T22:33:57.829Z,19.92
2023-01-17T22:36:25.524Z,25.23
2023-01-17T22:38:52.744Z,25.20
2023-01-17T22:41:25.039Z,21.52
2023-01-17T22:43:53.847Z,26.55
2023-01-17T22:46:26.579Z,25.33
2023-01-17T22:48:55.340Z,28.48
2023-01-17T22:51:23.874Z,25.45
2023-01-17T22:53:53.568Z,24.02
2023-01-17T22:56:23.575Z,24.02
2023-01-17T22:58:50.970Z,29.42
2023-01-17T23:01:20.659Z,26.08
2023-01-17T23:03:52.409Z,25.25
2023-01-17T23:06:22.496Z,27.42
2023-01-17T23:08:51.915Z,26.15
2023-01-17T23:11:42.929Z,29.02
2023-01-17T23:14:12.591Z,22.80
2023-01-17T23:17:00.522Z,30.08
2023-01-17T23:19:31.017Z,25.42
2023-01-17T23:22:18.182Z,23.05
2023-01-17T23:25:08.652Z,23.45
2023-01-17T23:28:05.202Z,20.35
2023-01-17T23:30:38.136Z,20.42
2023-01-17T23:33:09.692Z,16.33
2023-01-17T23:35:41.709Z,18.40
2023-01-17T23:38:26.072Z,20.92
2023-01-17T23:41:17.331Z,22.88
2023-01-17T23:43:44.387Z,21.80
2023-01-17T23:46:12.564Z,27.70
2023-01-17T23:48:39.398Z,28.35
2023-01-17T23:51:09.345Z,24.30
2023-01-17T23:53:38.336Z,25.52
2023-01-17T23:56:18.701Z,25.50
2023-01-17T23:58:45.991Z,17.98
